首页
METAR-TAF:

METAR-TAF

机场 :

Charles B. Wheeler Downtown Airport

堪薩斯城, 密蘇里州, 美国

纬度: 39-07-15N, 经度: 094-35-49W, 海拔: 231米

当前天气观测

该预报发布于23分钟前的01:54 UTC
风速8节,风向南转西南
温度 31°C
湿度 59%
气压 1009 hPa
能見度: 16.1公里
散云层高于6000英尺

METAR: KMKC 140154Z 20008KT 10SM SCT060 31/22 A2980 RMK AO2 LTG DSNT NW SLP081 T03110222

时间: 21:17 (02:17 UTC)

预报

该预报发布于2小时和34分钟前的23:43 UTC
预报有效从14日的 00点(UTC)到 14日的 24点(UTC)
风速12节,风向南转西南,有时为20节阵风
能見度: 10公里
少量云层高于5000英尺
从 14日的 0100点(UTC)
风速12节,风向西转西北,有时为20节阵风
能見度: 10公里
多云层高于3500英尺, 积雨云.
附近有雷暴
从 14日的 0200点(UTC)
风速15节,风向西转西北,有时为25节阵风
能見度: 6.4公里
阴天层高于1000英尺, 积雨云.
雷暴, 小雨
从 14日的 0500点(UTC)
风速7节,风向北转东北
能見度: 10公里
阴天层高于2000英尺
从 14日的 1200点(UTC)
风速8节,风向北转东北
能見度: 10公里
少量云层高于3000英尺
从 14日的 1500点(UTC)
风速11节,风向东转东北
能見度: 10公里
天空无云

TAF: KMKC 132343Z 1400/1424 21012G20KT P6SM FEW050 FM140100 29012G20KT P6SM VCTS BKN035CB FM140200 30015G25KT 4SM -TSRA OVC010CB FM140500 03007KT P6SM OVC020 FM141200 03008KT P6SM FEW030 FM141500 07011KT P6SM SKC

超过4000个机场的气象观测和天气预报(METAR&TAF报告)。

可查询的气象台以黄色和红色小点在地图上表示。

将鼠标移到小点上方,可查看气象台名称。

然后点击查看天气观测和预报。

如需切换地图:点击带黑十字的绿色按钮放大地图;点击带横线的绿色按钮缩小地图;或者点击绿色箭头查看邻近地区的地图。


METAR-TAF: